Time;durP1;ratioP1;P1;durP2;ratioP2;P2;SDS_P1;SDS_P2;PMS_P1;PMS_P2;Temp;Humidity;BMP_temperature;BMP_pressure;BME280_temperature;BME280_humidity;BME280_pressure;Samples;Min_cycle;Max_cycle;Signal;HPM_P1;HPM_P2
2022/02/24 00:02:00;;;;;;;4.47;2.10;;;4.00;99.90;;;;;;4189982;28;20455;-77
2022/02/24 00:04:02;;;;;;;7.23;2.07;;;4.00;99.90;;;;;;4197137;28;20475;-78
2022/02/24 00:06:04;;;;;;;4.60;2.13;;;4.00;99.90;;;;;;4183532;28;20459;-78
2022/02/24 00:08:05;;;;;;;6.47;2.50;;;4.00;99.90;;;;;;4181043;28;20493;-78
2022/02/24 00:10:11;;;;;;;8.50;2.60;;;4.00;99.90;;;;;;4187394;28;20456;-78
2022/02/24 00:12:13;;;;;;;6.33;2.07;;;3.90;99.90;;;;;;4197721;28;20502;-78
2022/02/24 00:14:15;;;;;;;5.93;2.00;;;4.00;99.90;;;;;;4191154;28;20815;-77
2022/02/24 00:16:16;;;;;;;7.00;1.97;;;3.90;99.90;;;;;;4194077;28;20464;-77
2022/02/24 00:18:18;;;;;;;9.97;2.20;;;3.90;99.90;;;;;;4194577;28;20482;-76
2022/02/24 00:20:20;;;;;;;6.00;1.60;;;3.90;99.90;;;;;;4189452;28;20529;-80
2022/02/24 00:22:22;;;;;;;6.40;1.87;;;3.80;99.90;;;;;;4193262;28;20456;-79
2022/02/24 00:24:26;;;;;;;8.80;2.13;;;3.80;99.90;;;;;;4187207;28;20468;-77
2022/02/24 00:26:29;;;;;;;5.03;1.60;;;3.80;99.90;;;;;;4196856;28;20533;-77
2022/02/24 00:28:32;;;;;;;6.60;1.63;;;3.80;99.90;;;;;;4196746;28;20893;-78
2022/02/24 00:30:33;;;;;;;4.77;1.87;;;3.80;99.90;;;;;;4194892;28;20471;-78
2022/02/24 00:32:35;;;;;;;9.27;2.50;;;3.80;99.90;;;;;;4188811;28;20496;-78
2022/02/24 00:34:37;;;;;;;7.93;1.90;;;3.80;99.90;;;;;;4188308;28;20464;-79
2022/02/24 00:36:39;;;;;;;6.00;1.90;;;3.70;99.90;;;;;;4191171;28;20452;-78
2022/02/24 00:38:41;;;;;;;7.27;1.80;;;3.70;99.90;;;;;;4189192;28;20797;-79
2022/02/24 00:40:42;;;;;;;10.27;2.30;;;3.70;99.90;;;;;;4188357;28;20904;-78
2022/02/24 00:42:45;;;;;;;5.60;2.43;;;3.70;99.90;;;;;;4201108;28;20498;-77
2022/02/24 00:44:47;;;;;;;4.97;1.80;;;3.60;99.90;;;;;;4198420;28;20451;-77
2022/02/24 00:46:49;;;;;;;3.63;1.83;;;3.60;99.90;;;;;;4193024;28;20478;-78
2022/02/24 00:48:51;;;;;;;3.87;1.80;;;3.60;99.90;;;;;;4190078;28;20504;-79
2022/02/24 00:50:52;;;;;;;6.33;1.60;;;3.50;99.90;;;;;;4187552;28;20479;-77
2022/02/24 00:52:56;;;;;;;7.60;1.67;;;3.10;99.90;;;;;;4186140;28;20453;-76
2022/02/24 00:55:00;;;;;;;7.37;1.80;;;3.50;99.90;;;;;;4193632;28;20456;-79
2022/02/24 00:57:02;;;;;;;6.13;1.80;;;3.50;99.90;;;;;;4196348;28;20475;-76
2022/02/24 00:59:05;;;;;;;4.17;1.63;;;3.50;99.90;;;;;;4196062;28;20525;-75
2022/02/24 01:01:07;;;;;;;8.00;2.00;;;3.50;99.90;;;;;;4186426;28;20821;-78
2022/02/24 01:03:09;;;;;;;5.30;2.20;;;3.50;99.90;;;;;;4187739;28;20470;-75
2022/02/24 01:05:11;;;;;;;5.70;1.97;;;4.40;99.90;;;;;;4194442;28;20961;-76
2022/02/24 01:07:13;;;;;;;3.93;1.57;;;3.40;99.90;;;;;;4188131;28;20561;-79
2022/02/24 01:09:15;;;;;;;2.97;1.43;;;3.40;99.90;;;;;;4196212;28;20467;-76
2022/02/24 01:11:17;;;;;;;4.70;1.53;;;3.40;99.90;;;;;;4195659;28;20551;-76
2022/02/24 01:13:19;;;;;;;3.50;1.53;;;3.40;99.90;;;;;;4196235;28;20949;-78
2022/02/24 01:15:22;;;;;;;5.10;1.60;;;3.40;99.90;;;;;;4196815;28;20471;-78
2022/02/24 01:17:24;;;;;;;5.60;1.90;;;3.30;99.90;;;;;;4197705;22;20460;-84
2022/02/24 01:19:26;;;;;;;10.03;1.97;;;3.40;99.90;;;;;;4215313;28;20451;-84
2022/02/24 01:21:28;;;;;;;4.70;1.73;;;3.40;99.90;;;;;;4213464;28;20873;-83
2022/02/24 01:23:30;;;;;;;7.87;1.70;;;3.40;99.90;;;;;;4210583;28;20550;-83
2022/02/24 01:25:32;;;;;;;3.90;1.60;;;3.60;99.90;;;;;;4208777;28;20444;-83
2022/02/24 01:27:34;;;;;;;3.43;1.57;;;3.40;99.90;;;;;;4210941;28;21012;-82
2022/02/24 01:29:36;;;;;;;5.63;1.80;;;3.40;99.90;;;;;;4209025;28;20444;-83
2022/02/24 01:31:39;;;;;;;4.83;1.60;;;3.40;99.90;;;;;;4205602;28;20864;-83
2022/02/24 01:33:41;;;;;;;6.17;1.30;;;4.70;99.90;;;;;;4214037;28;20455;-83
2022/02/24 01:35:43;;;;;;;5.80;2.03;;;3.50;99.90;;;;;;4206131;28;21268;-82
2022/02/24 01:37:45;;;;;;;5.83;1.50;;;3.50;99.90;;;;;;4208521;28;20478;-83
2022/02/24 01:39:47;;;;;;;5.13;1.73;;;3.40;99.90;;;;;;4214124;28;20884;-82
2022/02/24 01:41:49;;;;;;;7.13;1.70;;;3.50;99.90;;;;;;4208117;28;20471;-83
2022/02/24 01:43:51;;;;;;;6.03;2.17;;;3.90;99.90;;;;;;4215275;28;20529;-84
2022/02/24 01:45:53;;;;;;;4.83;1.53;;;3.70;99.90;;;;;;4218244;28;20492;-84
2022/02/24 01:47:58;;;;;;;4.60;1.37;;;3.50;99.90;;;;;;4215091;28;20537;-82
2022/02/24 01:50:00;;;;;;;7.63;1.63;;;3.60;99.90;;;;;;4216824;28;20455;-86
2022/02/24 01:52:05;;;;;;;4.63;1.53;;;3.60;99.90;;;;;;4218543;28;21090;-83
2022/02/24 01:54:07;;;;;;;8.17;1.53;;;3.60;99.90;;;;;;4213039;28;20881;-85
2022/02/24 01:56:09;;;;;;;4.17;1.47;;;3.60;99.90;;;;;;4211262;28;20466;-85
2022/02/24 01:58:11;;;;;;;4.87;1.60;;;3.70;99.90;;;;;;4213494;28;20511;-85
2022/02/24 02:00:14;;;;;;;3.83;1.50;;;3.90;99.90;;;;;;4216178;28;20978;-85
2022/02/24 02:02:17;;;;;;;4.30;1.37;;;3.70;99.90;;;;;;4210477;28;20455;-85
2022/02/24 02:04:20;;;;;;;6.27;1.60;;;3.70;99.90;;;;;;4210757;28;20467;-86
2022/02/24 02:06:24;;;;;;;3.63;1.40;;;3.70;99.90;;;;;;4209246;28;20943;-84
2022/02/24 02:08:27;;;;;;;3.83;1.53;;;3.70;99.90;;;;;;4201218;28;20456;-85
2022/02/24 02:10:28;;;;;;;3.77;1.40;;;3.70;99.90;;;;;;4208252;28;20466;-85
2022/02/24 02:12:44;;;;;;;6.37;1.63;;;3.70;99.90;;;;;;4216511;28;20490;-86
2022/02/24 02:14:46;;;;;;;7.57;1.63;;;3.50;99.90;;;;;;4220012;28;20816;-83
2022/02/24 02:16:49;;;;;;;5.40;1.57;;;3.70;99.90;;;;;;4219413;28;20504;-85
2022/02/24 02:18:51;;;;;;;7.43;2.37;;;3.70;99.90;;;;;;4220216;28;20474;-83
2022/02/24 02:20:54;;;;;;;12.30;1.57;;;3.70;99.90;;;;;;4214511;28;20468;-83
2022/02/24 02:22:56;;;;;;;6.17;1.20;;;3.70;99.90;;;;;;4213581;28;20459;-86
2022/02/24 02:24:59;;;;;;;4.67;1.53;;;3.70;99.90;;;;;;4204448;28;20472;-86
2022/02/24 02:27:02;;;;;;;4.30;1.40;;;3.90;99.90;;;;;;4213964;28;20471;-84
2022/02/24 02:29:06;;;;;;;4.80;1.30;;;3.70;99.90;;;;;;4214768;28;20490;-84
2022/02/24 02:31:07;;;;;;;5.53;1.53;;;3.70;99.90;;;;;;4211047;28;20871;-84
2022/02/24 02:33:10;;;;;;;5.17;1.23;;;4.00;99.90;;;;;;4210563;28;20474;-84
2022/02/24 02:35:12;;;;;;;5.73;1.93;;;3.70;99.90;;;;;;4215375;28;20525;-84
2022/02/24 02:37:15;;;;;;;3.93;1.43;;;3.70;99.90;;;;;;4204405;28;20486;-84
2022/02/24 02:39:17;;;;;;;7.40;1.60;;;3.70;99.90;;;;;;4218168;28;20455;-84
2022/02/24 02:41:18;;;;;;;5.23;1.53;;;3.70;99.90;;;;;;4217821;28;20495;-85
2022/02/24 02:43:20;;;;;;;4.43;1.70;;;3.80;99.90;;;;;;4218638;28;20477;-84
2022/02/24 02:45:22;;;;;;;9.00;1.70;;;3.70;99.90;;;;;;4214685;28;20471;-84
2022/02/24 02:47:24;;;;;;;3.93;1.50;;;4.00;99.90;;;;;;4209839;28;20451;-84
2022/02/24 02:49:26;;;;;;;4.00;1.23;;;3.80;99.90;;;;;;4218022;28;20455;-84
2022/02/24 02:51:28;;;;;;;4.80;1.57;;;4.40;99.90;;;;;;4216357;28;20463;-84
2022/02/24 02:53:31;;;;;;;6.17;1.40;;;3.80;99.90;;;;;;4211523;28;20509;-84
2022/02/24 02:55:34;;;;;;;6.13;1.90;;;3.80;99.90;;;;;;4208473;28;20482;-85
2022/02/24 02:57:37;;;;;;;8.23;1.60;;;3.80;99.90;;;;;;4213848;28;20462;-84
2022/02/24 02:59:39;;;;;;;6.80;1.43;;;3.80;99.90;;;;;;4218594;28;20849;-85
2022/02/24 03:01:41;;;;;;;4.50;1.33;;;3.40;99.90;;;;;;4217258;28;20458;-84
2022/02/24 03:03:42;;;;;;;4.73;1.20;;;4.10;99.90;;;;;;4215343;28;20462;-84
2022/02/24 03:05:45;;;;;;;9.60;1.43;;;3.80;99.90;;;;;;4212844;28;20471;-84
2022/02/24 03:07:46;;;;;;;4.27;1.67;;;3.90;99.90;;;;;;4209908;28;20505;-84
2022/02/24 03:09:50;;;;;;;4.57;1.57;;;3.80;99.90;;;;;;4218926;28;20462;-84
2022/02/24 03:11:51;;;;;;;5.30;1.57;;;3.80;99.90;;;;;;4219063;28;20840;-85
2022/02/24 03:13:56;;;;;;;5.57;1.50;;;3.80;99.90;;;;;;4214642;28;20456;-85
2022/02/24 03:15:58;;;;;;;7.03;1.70;;;3.80;99.90;;;;;;4217012;28;20524;-85
2022/02/24 03:18:03;;;;;;;4.33;1.40;;;3.80;99.90;;;;;;4217916;28;20482;-84
2022/02/24 03:20:06;;;;;;;4.13;1.30;;;4.00;99.90;;;;;;4217400;28;20456;-84
2022/02/24 03:22:11;;;;;;;5.10;1.73;;;3.80;99.90;;;;;;4214789;28;20485;-84
2022/02/24 03:24:12;;;;;;;4.23;1.50;;;3.70;99.90;;;;;;4206235;28;20478;-84
2022/02/24 03:26:16;;;;;;;6.53;1.53;;;3.70;99.90;;;;;;4208479;28;20530;-84
2022/02/24 03:28:17;;;;;;;5.37;1.40;;;3.70;99.90;;;;;;4207726;28;20484;-84
2022/02/24 03:30:19;;;;;;;6.40;1.50;;;3.70;99.90;;;;;;4211875;28;20513;-84
2022/02/24 03:32:21;;;;;;;6.20;1.83;;;3.70;99.90;;;;;;4209644;28;20491;-84
2022/02/24 03:34:23;;;;;;;10.03;1.60;;;3.70;99.90;;;;;;4212235;28;20448;-84
2022/02/24 03:36:25;;;;;;;7.03;1.60;;;3.70;99.90;;;;;;4216300;28;20455;-85
2022/02/24 03:38:27;;;;;;;6.47;1.60;;;3.70;99.90;;;;;;4210135;28;20479;-84
2022/02/24 03:40:30;;;;;;;4.13;1.60;;;3.70;99.90;;;;;;4211077;28;20453;-84
2022/02/24 03:42:33;;;;;;;4.67;1.30;;;3.70;99.90;;;;;;4213895;28;20823;-84
2022/02/24 03:44:35;;;;;;;2.87;1.50;;;3.60;99.90;;;;;;4207909;28;20936;-84
2022/02/24 03:46:37;;;;;;;5.53;1.57;;;3.80;99.90;;;;;;4209892;28;20469;-84
2022/02/24 03:48:38;;;;;;;8.63;1.70;;;3.60;99.90;;;;;;4204394;28;20468;-85
2022/02/24 03:50:40;;;;;;;2.93;1.37;;;3.60;99.90;;;;;;4201694;28;20444;-85
2022/02/24 03:52:42;;;;;;;3.70;1.30;;;3.60;99.90;;;;;;4212769;28;20487;-84
2022/02/24 03:54:45;;;;;;;4.43;1.57;;;4.20;99.90;;;;;;4211347;28;20818;-84
2022/02/24 03:56:47;;;;;;;3.57;1.27;;;3.60;99.90;;;;;;4214222;28;20458;-84
2022/02/24 03:58:50;;;;;;;4.83;1.67;;;3.60;99.90;;;;;;4217650;28;20554;-85
2022/02/24 04:00:52;;;;;;;7.83;1.83;;;3.60;99.90;;;;;;4217897;28;20459;-84
2022/02/24 04:02:55;;;;;;;4.00;1.40;;;3.70;99.90;;;;;;4216844;28;20455;-84
2022/02/24 04:04:57;;;;;;;4.13;1.53;;;4.00;99.90;;;;;;4218121;28;20970;-84
2022/02/24 04:06:59;;;;;;;4.77;1.53;;;3.70;99.90;;;;;;4216942;28;20454;-85
2022/02/24 04:09:01;;;;;;;11.10;1.50;;;3.70;99.90;;;;;;4213931;28;20471;-85
2022/02/24 04:11:03;;;;;;;6.43;1.83;;;3.70;99.90;;;;;;4212254;28;20478;-85
2022/02/24 04:13:05;;;;;;;6.87;1.30;;;3.70;99.90;;;;;;4215391;28;21003;-85
2022/02/24 04:15:09;;;;;;;5.00;1.73;;;3.70;99.90;;;;;;4211516;28;20456;-85
2022/02/24 04:17:11;;;;;;;7.70;1.67;;;3.70;99.90;;;;;;4214808;28;20836;-84
2022/02/24 04:19:13;;;;;;;3.47;1.27;;;4.10;99.90;;;;;;4212202;28;20467;-84
2022/02/24 04:21:14;;;;;;;9.63;1.70;;;4.50;99.90;;;;;;4213034;28;20516;-85
2022/02/24 04:23:16;;;;;;;4.03;1.60;;;3.70;99.90;;;;;;4215736;28;20459;-84
2022/02/24 04:25:20;;;;;;;6.27;1.30;;;3.70;99.90;;;;;;4211562;28;20456;-84
2022/02/24 04:27:22;;;;;;;5.23;1.33;;;3.70;99.90;;;;;;4218693;28;20524;-84
2022/02/24 04:29:24;;;;;;;5.47;1.50;;;3.70;99.90;;;;;;4218783;28;20494;-85
2022/02/24 04:31:27;;;;;;;2.90;1.30;;;3.70;99.90;;;;;;4215658;28;20440;-85
2022/02/24 04:33:29;;;;;;;2.60;1.27;;;3.70;99.90;;;;;;4207895;28;20491;-84
2022/02/24 04:35:31;;;;;;;4.87;1.63;;;3.70;99.90;;;;;;4221045;28;20515;-84
2022/02/24 04:37:34;;;;;;;3.33;1.40;;;3.70;99.90;;;;;;4217082;28;20498;-84
2022/02/24 04:39:35;;;;;;;3.43;1.57;;;3.70;99.90;;;;;;4211473;28;20455;-84
2022/02/24 04:41:37;;;;;;;3.87;1.70;;;3.70;99.90;;;;;;4207698;28;20436;-84
2022/02/24 04:43:39;;;;;;;4.90;1.67;;;3.70;99.90;;;;;;4217299;28;20455;-85
2022/02/24 04:45:41;;;;;;;4.07;1.40;;;3.60;99.90;;;;;;4211835;28;20467;-84
2022/02/24 04:47:44;;;;;;;7.30;1.40;;;3.70;99.90;;;;;;4212950;28;20847;-84
2022/02/24 04:49:46;;;;;;;4.23;1.33;;;3.70;99.90;;;;;;4218943;28;20474;-85
2022/02/24 04:51:48;;;;;;;5.03;1.50;;;3.70;99.90;;;;;;4219500;28;20514;-84
2022/02/24 04:53:50;;;;;;;5.30;1.60;;;3.70;99.90;;;;;;4212580;28;20483;-84
2022/02/24 04:55:53;;;;;;;10.20;2.73;;;4.20;99.90;;;;;;4209201;28;20460;-84
2022/02/24 04:57:55;;;;;;;6.57;2.23;;;3.70;99.90;;;;;;4212152;28;20507;-84
2022/02/24 04:59:56;;;;;;;5.03;1.80;;;3.70;99.90;;;;;;4205443;28;20452;-85
2022/02/24 05:01:58;;;;;;;6.10;1.70;;;3.70;99.90;;;;;;4205235;28;20471;-84
2022/02/24 05:04:01;;;;;;;4.60;1.63;;;3.70;99.90;;;;;;4208498;28;20468;-85
2022/02/24 05:06:04;;;;;;;3.20;1.43;;;3.70;99.90;;;;;;4221317;28;20458;-84
2022/02/24 05:08:06;;;;;;;5.20;1.63;;;3.80;99.90;;;;;;4216641;28;20487;-84
2022/02/24 05:10:08;;;;;;;4.33;1.37;;;3.70;99.90;;;;;;4206892;28;20452;-84
2022/02/24 05:12:10;;;;;;;6.77;1.67;;;3.70;99.90;;;;;;4209701;28;20499;-84
2022/02/24 05:14:12;;;;;;;6.40;1.70;;;3.70;99.90;;;;;;4219448;28;20482;-84
2022/02/24 05:16:14;;;;;;;5.80;1.80;;;3.80;99.90;;;;;;4218762;28;20466;-84
2022/02/24 05:18:16;;;;;;;8.67;1.87;;;3.60;99.90;;;;;;4216779;28;20520;-84
2022/02/24 05:20:22;;;;;;;7.90;2.13;;;3.70;99.90;;;;;;4212551;28;20825;-84
2022/02/24 05:22:23;;;;;;;4.40;1.47;;;3.90;99.90;;;;;;4209790;28;20451;-85
2022/02/24 05:24:25;;;;;;;7.37;1.77;;;3.70;99.90;;;;;;4216389;28;20828;-85
2022/02/24 05:26:27;;;;;;;7.07;2.00;;;3.70;99.90;;;;;;4211479;28;20462;-84
2022/02/24 05:28:29;;;;;;;7.00;1.77;;;3.70;99.90;;;;;;4207994;28;20467;-84
2022/02/24 05:30:30;;;;;;;4.43;1.73;;;3.80;99.90;;;;;;4214396;28;20451;-86
2022/02/24 05:32:32;;;;;;;5.50;1.63;;;3.70;99.90;;;;;;4209464;28;20470;-85
2022/02/24 05:34:34;;;;;;;3.57;1.60;;;3.70;99.90;;;;;;4210571;28;20501;-85
2022/02/24 05:36:38;;;;;;;6.63;1.87;;;3.70;99.90;;;;;;4207695;28;20458;-84
2022/02/24 05:38:40;;;;;;;2.80;1.40;;;4.70;99.90;;;;;;4209726;28;21056;-89
2022/02/24 05:40:42;;;;;;;5.27;1.70;;;3.70;99.90;;;;;;4215032;28;20532;-84
2022/02/24 05:42:44;;;;;;;4.77;1.40;;;3.80;99.90;;;;;;4216324;28;20522;-85
2022/02/24 05:44:46;;;;;;;7.10;2.10;;;3.80;99.90;;;;;;4211821;28;20435;-84
2022/02/24 05:46:48;;;;;;;5.00;1.67;;;3.80;99.90;;;;;;4215682;28;20459;-85
2022/02/24 05:48:52;;;;;;;4.63;1.60;;;3.80;99.90;;;;;;4218986;28;20768;-85
2022/02/24 05:50:55;;;;;;;7.60;2.00;;;3.80;99.90;;;;;;4213406;28;20820;-84
2022/02/24 05:53:02;;;;;;;7.73;1.60;;;3.90;99.90;;;;;;4215190;28;20461;-83
2022/02/24 05:55:05;;;;;;;7.03;1.70;;;3.90;99.90;;;;;;4214062;28;20554;-84
2022/02/24 05:57:07;;;;;;;6.57;1.60;;;3.90;99.90;;;;;;4211886;28;20451;-84
2022/02/24 05:59:09;;;;;;;4.87;1.33;;;3.90;99.90;;;;;;4205783;28;21019;-85
2022/02/24 06:01:10;;;;;;;5.07;1.50;;;4.00;99.90;;;;;;4211461;28;20447;-85
2022/02/24 06:03:12;;;;;;;2.80;1.30;;;4.00;99.90;;;;;;4215837;28;20944;-85
2022/02/24 06:05:15;;;;;;;5.90;1.40;;;4.00;99.90;;;;;;4206530;28;20501;-84
2022/02/24 06:07:19;;;;;;;3.47;1.47;;;4.00;99.90;;;;;;4203447;28;20460;-84
2022/02/24 06:09:22;;;;;;;7.00;1.43;;;4.40;99.90;;;;;;4212205;28;20455;-84
2022/02/24 06:11:24;;;;;;;5.37;1.60;;;4.10;99.90;;;;;;4210765;28;20451;-84
2022/02/24 06:13:27;;;;;;;7.20;2.03;;;4.10;99.90;;;;;;4213361;28;20501;-84
2022/02/24 06:15:30;;;;;;;6.47;1.67;;;4.10;99.90;;;;;;4209822;28;20456;-86
2022/02/24 06:17:31;;;;;;;5.17;1.83;;;4.20;99.90;;;;;;4211783;28;20477;-85
2022/02/24 06:19:33;;;;;;;4.00;1.60;;;4.20;99.90;;;;;;4206750;28;20454;-85
2022/02/24 06:21:35;;;;;;;6.53;1.50;;;4.30;99.90;;;;;;4209364;28;20447;-85
2022/02/24 06:23:37;;;;;;;4.70;1.60;;;4.20;99.90;;;;;;4209584;28;20478;-86
2022/02/24 06:25:40;;;;;;;4.40;2.00;;;4.30;99.90;;;;;;4211628;28;20454;-85
2022/02/24 06:27:42;;;;;;;8.33;1.63;;;4.30;99.90;;;;;;4211138;28;20467;-85
2022/02/24 06:29:44;;;;;;;6.20;2.27;;;4.30;99.90;;;;;;4207517;28;20467;-85
2022/02/24 06:31:46;;;;;;;4.30;1.60;;;4.40;99.90;;;;;;4211012;28;20470;-85
2022/02/24 06:33:48;;;;;;;7.00;2.23;;;4.40;99.90;;;;;;4211216;28;20497;-85
2022/02/24 06:35:49;;;;;;;4.50;2.30;;;4.50;99.90;;;;;;4211483;28;21031;-85
2022/02/24 06:37:51;;;;;;;9.93;2.43;;;4.50;99.90;;;;;;4214748;28;20507;-85
2022/02/24 06:39:53;;;;;;;5.77;2.37;;;4.80;99.90;;;;;;4211466;28;20979;-85
2022/02/24 06:41:56;;;;;;;6.80;1.70;;;4.50;99.90;;;;;;4212624;28;20455;-85
2022/02/24 06:44:01;;;;;;;4.87;1.50;;;4.60;99.90;;;;;;4213264;28;20532;-85
2022/02/24 06:46:03;;;;;;;7.60;2.00;;;4.60;99.90;;;;;;4215245;28;20980;-84
2022/02/24 06:48:05;;;;;;;4.63;2.00;;;4.30;99.90;;;;;;4205785;28;20479;-88
2022/02/24 06:50:09;;;;;;;3.70;1.37;;;4.60;99.90;;;;;;4206670;28;20454;-84
2022/02/24 06:52:14;;;;;;;6.90;2.07;;;4.60;99.90;;;;;;4208454;28;20461;-84
2022/02/24 06:54:15;;;;;;;4.27;1.70;;;4.70;99.90;;;;;;4208204;28;21039;-85
2022/02/24 06:56:17;;;;;;;5.93;1.90;;;4.80;99.90;;;;;;4209588;28;20482;-87
2022/02/24 06:58:20;;;;;;;6.13;1.60;;;4.70;99.90;;;;;;4208737;28;20478;-84
2022/02/24 07:00:23;;;;;;;7.80;2.33;;;4.80;99.90;;;;;;4207470;28;20459;-84
2022/02/24 07:02:25;;;;;;;6.40;2.20;;;4.80;99.90;;;;;;4204167;28;20499;-85
2022/02/24 07:04:27;;;;;;;2.37;1.60;;;4.80;99.90;;;;;;4208994;28;20444;-85
2022/02/24 07:06:29;;;;;;;3.23;1.57;;;4.90;99.90;;;;;;4208168;28;20482;-85
2022/02/24 07:08:32;;;;;;;4.53;1.70;;;4.80;99.90;;;;;;4208221;28;20479;-84
2022/02/24 07:10:34;;;;;;;6.70;2.00;;;4.90;99.90;;;;;;4199193;28;20528;-84
2022/02/24 07:12:36;;;;;;;6.93;1.87;;;4.90;99.90;;;;;;4197842;28;20475;-84
2022/02/24 07:14:40;;;;;;;6.00;1.50;;;4.90;99.90;;;;;;4205834;28;20515;-86
2022/02/24 07:16:41;;;;;;;6.17;2.53;;;4.90;99.90;;;;;;4204304;28;20832;-84
2022/02/24 07:18:43;;;;;;;3.97;1.50;;;5.00;99.90;;;;;;4202933;22;20508;-76
2022/02/24 07:20:45;;;;;;;7.83;2.13;;;5.00;99.90;;;;;;4172963;28;20464;-76
2022/02/24 07:22:47;;;;;;;4.70;1.83;;;5.00;99.90;;;;;;4176453;28;20469;-74
2022/02/24 07:24:49;;;;;;;5.57;1.90;;;5.10;99.90;;;;;;4174361;28;20516;-76
2022/02/24 07:26:51;;;;;;;3.90;1.50;;;5.10;99.90;;;;;;4172860;28;20895;-74
2022/02/24 07:28:53;;;;;;;3.17;1.43;;;5.10;99.90;;;;;;4175645;28;20540;-76
2022/02/24 07:30:59;;;;;;;4.13;1.60;;;5.10;99.90;;;;;;4175526;28;20542;-76
2022/02/24 07:33:01;;;;;;;4.17;1.70;;;5.20;99.90;;;;;;4175895;28;20470;-76
2022/02/24 07:35:04;;;;;;;3.97;1.70;;;5.20;99.90;;;;;;4174127;28;20484;-75
2022/02/24 07:37:05;;;;;;;9.40;2.27;;;5.20;99.90;;;;;;4174629;28;20898;-75
2022/02/24 07:39:10;;;;;;;8.70;1.80;;;5.20;99.90;;;;;;4173600;28;20496;-74
2022/02/24 07:41:12;;;;;;;6.40;1.83;;;5.20;99.90;;;;;;4172421;28;20883;-76
2022/02/24 07:43:14;;;;;;;4.30;1.97;;;5.20;99.90;;;;;;4172727;28;20442;-77
2022/02/24 07:45:16;;;;;;;5.13;2.00;;;5.30;99.90;;;;;;4173411;28;20446;-74
2022/02/24 07:47:20;;;;;;;5.93;1.97;;;5.30;99.90;;;;;;4173274;28;20922;-75
2022/02/24 07:49:23;;;;;;;7.27;2.10;;;5.30;99.90;;;;;;4171733;28;20493;-74
2022/02/24 07:51:25;;;;;;;6.50;2.20;;;5.30;99.90;;;;;;4172694;28;20856;-74
2022/02/24 07:53:28;;;;;;;3.10;1.70;;;5.40;99.90;;;;;;4173420;28;20465;-77
2022/02/24 07:55:30;;;;;;;4.73;1.90;;;5.40;99.90;;;;;;4173372;28;20515;-79
2022/02/24 07:57:32;;;;;;;9.37;2.30;;;5.50;99.90;;;;;;4172540;28;20485;-76
2022/02/24 07:59:34;;;;;;;5.13;1.70;;;5.50;99.90;;;;;;4172360;28;21943;-75
2022/02/24 08:01:35;;;;;;;5.40;1.77;;;5.50;99.90;;;;;;4172448;28;20464;-74
2022/02/24 08:03:39;;;;;;;5.57;1.80;;;5.60;99.90;;;;;;4173372;28;20460;-74
2022/02/24 08:05:43;;;;;;;5.17;1.83;;;5.60;99.90;;;;;;4171164;28;20873;-75
2022/02/24 08:07:45;;;;;;;4.67;1.80;;;5.60;99.90;;;;;;4175978;28;20521;-76
2022/02/24 08:09:46;;;;;;;10.27;2.20;;;5.70;99.90;;;;;;4171275;28;20469;-75
2022/02/24 08:12:38;;;;;;;4.80;1.63;;;5.70;99.90;;;;;;4171393;28;20938;-77
2022/02/24 08:14:10;;;;;;;10.47;1.80;;;5.70;99.90;;;;;;4172933;28;20478;-74
2022/02/24 08:16:12;;;;;;;6.27;1.90;;;5.80;99.90;;;;;;4174322;28;20547;-77
2022/02/24 08:18:15;;;;;;;4.80;1.40;;;5.80;99.90;;;;;;4174289;28;20519;-78
2022/02/24 08:20:18;;;;;;;6.90;3.17;;;5.90;99.90;;;;;;4173911;28;20846;-76
2022/02/24 08:22:20;;;;;;;5.43;2.20;;;5.90;99.90;;;;;;4172755;28;20977;-76
2022/02/24 08:24:22;;;;;;;5.10;1.93;;;5.90;99.90;;;;;;4172191;28;20461;-76
2022/02/24 08:26:27;;;;;;;4.43;2.07;;;5.90;99.90;;;;;;4174540;28;21126;-74
2022/02/24 08:28:29;;;;;;;6.87;1.80;;;5.90;99.90;;;;;;4170775;28;20705;-75
2022/02/24 08:30:30;;;;;;;3.63;1.77;;;6.00;99.90;;;;;;4172874;28;20853;-74
2022/02/24 08:32:32;;;;;;;3.40;1.57;;;6.00;99.90;;;;;;4172078;28;20478;-74
2022/02/24 08:34:34;;;;;;;6.50;1.80;;;6.00;99.90;;;;;;4171108;28;20494;-74
2022/02/24 08:36:37;;;;;;;4.97;1.63;;;6.00;99.90;;;;;;4179750;28;20469;-76
2022/02/24 08:38:39;;;;;;;7.67;1.87;;;6.00;99.90;;;;;;4171269;28;20563;-74
2022/02/24 08:40:41;;;;;;;5.13;1.73;;;6.00;99.90;;;;;;4172615;28;20462;-75
2022/02/24 08:42:45;;;;;;;5.67;1.93;;;6.10;99.90;;;;;;4173346;28;20498;-76
2022/02/24 08:44:46;;;;;;;2.70;1.70;;;6.10;99.90;;;;;;4170473;28;20464;-78
2022/02/24 08:46:48;;;;;;;9.13;2.00;;;6.20;99.90;;;;;;4171693;28;21383;-77
2022/02/24 08:48:50;;;;;;;4.93;2.00;;;6.20;99.90;;;;;;4170558;28;20498;-76
2022/02/24 08:50:52;;;;;;;5.90;2.00;;;6.30;99.90;;;;;;4173080;28;20486;-77
2022/02/24 08:52:55;;;;;;;4.73;1.60;;;6.30;99.90;;;;;;4172851;28;20463;-74
2022/02/24 08:54:57;;;;;;;6.17;2.07;;;6.40;99.90;;;;;;4169213;28;20498;-75
2022/02/24 08:56:59;;;;;;;5.80;2.30;;;6.40;99.90;;;;;;4171338;28;20552;-77
2022/02/24 08:59:00;;;;;;;6.70;2.20;;;6.40;99.90;;;;;;4171639;28;20489;-74
2022/02/24 09:01:03;;;;;;;8.90;2.20;;;6.40;99.90;;;;;;4168475;28;20526;-74
2022/02/24 09:03:05;;;;;;;7.37;1.90;;;6.50;99.90;;;;;;4170060;28;20472;-74
2022/02/24 09:05:07;;;;;;;6.73;2.40;;;6.50;99.90;;;;;;4170380;28;20464;-75
2022/02/24 09:07:09;;;;;;;4.33;2.17;;;6.50;99.90;;;;;;4170882;28;20951;-74
2022/02/24 09:09:13;;;;;;;6.37;2.27;;;6.60;99.90;;;;;;4171188;28;20482;-77
2022/02/24 09:11:14;;;;;;;6.30;2.20;;;6.50;99.90;;;;;;4172073;28;20813;-78
2022/02/24 09:13:16;;;;;;;5.83;1.80;;;6.60;99.90;;;;;;4170944;28;20471;-75
2022/02/24 09:15:18;;;;;;;4.27;1.80;;;6.60;99.90;;;;;;4167653;28;20493;-77
2022/02/24 09:17:20;;;;;;;5.03;1.97;;;6.70;99.90;;;;;;4170677;28;20468;-76
2022/02/24 09:19:22;;;;;;;5.33;1.90;;;6.60;99.90;;;;;;4169841;28;21017;-76
2022/02/24 09:21:25;;;;;;;6.53;2.30;;;6.80;99.90;;;;;;4169304;28;20505;-76
2022/02/24 09:23:27;;;;;;;5.63;2.13;;;6.70;99.90;;;;;;4170021;28;20867;-80
2022/02/24 09:25:30;;;;;;;5.93;2.10;;;6.70;99.90;;;;;;4169196;28;20535;-78
2022/02/24 09:27:32;;;;;;;4.23;1.83;;;6.70;99.90;;;;;;4169538;28;20464;-78
2022/02/24 09:29:34;;;;;;;5.97;2.10;;;7.00;99.90;;;;;;4171257;28;21191;-76
2022/02/24 09:31:36;;;;;;;6.73;2.17;;;6.80;99.90;;;;;;4169876;28;20486;-75
2022/02/24 09:33:38;;;;;;;8.57;2.10;;;6.80;99.90;;;;;;4169892;28;20468;-76
2022/02/24 09:35:40;;;;;;;5.23;2.10;;;6.80;99.90;;;;;;4168418;28;20489;-75
2022/02/24 09:37:42;;;;;;;6.40;2.17;;;6.90;99.90;;;;;;4171905;28;20463;-77
2022/02/24 09:39:44;;;;;;;4.23;1.90;;;6.90;99.90;;;;;;4171102;28;20854;-75
2022/02/24 09:41:47;;;;;;;5.43;1.97;;;6.90;99.90;;;;;;4172163;28;20915;-77
2022/02/24 09:43:49;;;;;;;6.20;2.20;;;6.90;99.90;;;;;;4169999;28;20459;-74
2022/02/24 09:45:51;;;;;;;6.47;2.20;;;6.90;99.90;;;;;;4171498;28;20484;-74
2022/02/24 09:47:55;;;;;;;6.27;2.63;;;6.90;99.90;;;;;;4171089;28;20557;-74
2022/02/24 09:49:59;;;;;;;5.73;2.27;;;6.90;99.90;;;;;;4169360;28;20460;-75
2022/02/24 09:52:01;;;;;;;7.10;2.10;;;6.90;99.90;;;;;;4171187;28;20839;-74
2022/02/24 09:54:04;;;;;;;8.83;2.30;;;6.90;99.90;;;;;;4171501;28;20472;-76
2022/02/24 09:56:12;;;;;;;6.53;1.97;;;6.90;99.90;;;;;;4169650;28;20493;-74
2022/02/24 09:58:15;;;;;;;7.60;2.27;;;6.90;99.90;;;;;;4170197;28;20503;-75
2022/02/24 10:00:18;;;;;;;6.63;2.27;;;6.90;99.90;;;;;;4170466;28;20495;-75
2022/02/24 10:02:20;;;;;;;5.70;2.20;;;7.00;99.90;;;;;;4170437;28;21857;-76
2022/02/24 10:04:25;;;;;;;9.53;2.47;;;7.00;99.90;;;;;;4171237;28;20457;-75
2022/02/24 10:06:36;;;;;;;6.80;2.27;;;7.00;99.90;;;;;;4173388;28;20464;-76
2022/02/24 10:08:41;;;;;;;4.30;1.93;;;7.00;99.90;;;;;;4174321;28;21071;-77
2022/02/24 10:10:43;;;;;;;4.50;1.67;;;7.00;99.90;;;;;;4172329;28;20847;-78
2022/02/24 10:13:03;;;;;;;4.93;1.97;;;7.00;99.90;;;;;;4174569;28;20514;-77
2022/02/24 10:15:14;;;;;;;4.00;1.83;;;7.00;99.90;;;;;;4174045;28;20549;-77
2022/02/24 10:17:17;;;;;;;3.93;1.70;;;7.00;99.90;;;;;;4174543;28;20504;-78
2022/02/24 10:19:19;;;;;;;5.63;1.80;;;7.10;99.90;;;;;;4174602;28;20499;-76
2022/02/24 10:21:21;;;;;;;7.43;1.67;;;7.10;99.90;;;;;;4173341;28;20535;-77
2022/02/24 10:23:32;;;;;;;5.13;1.73;;;7.10;99.90;;;;;;4174120;28;20509;-75
2022/02/24 10:25:39;;;;;;;5.17;1.80;;;7.10;99.90;;;;;;4173629;28;20495;-76
2022/02/24 10:27:42;;;;;;;4.70;1.50;;;7.20;99.90;;;;;;4173226;28;21048;-77
2022/02/24 10:30:06;;;;;;;3.63;1.70;;;7.20;99.90;;;;;;4174911;28;20927;-76
2022/02/24 10:32:28;;;;;;;6.40;1.90;;;7.20;99.90;;;;;;4173859;28;20467;-76
2022/02/24 10:34:29;;;;;;;7.13;1.97;;;7.20;99.90;;;;;;4173849;28;20475;-76
2022/02/24 10:36:34;;;;;;;5.60;1.70;;;7.20;99.90;;;;;;4174104;28;20465;-75
2022/02/24 10:38:36;;;;;;;7.37;1.80;;;7.20;99.90;;;;;;4173446;28;20477;-76
2022/02/24 10:40:40;;;;;;;5.50;2.03;;;7.20;99.90;;;;;;4173273;28;20608;-76
2022/02/24 10:42:42;;;;;;;5.53;1.70;;;7.30;99.90;;;;;;4177171;28;20455;-77
2022/02/24 10:44:43;;;;;;;3.97;1.90;;;7.30;99.90;;;;;;4176217;28;20529;-76
2022/02/24 10:46:47;;;;;;;4.97;1.70;;;7.30;99.90;;;;;;4174829;28;20528;-76
2022/02/24 10:48:51;;;;;;;5.53;1.90;;;7.30;99.90;;;;;;4174140;28;20479;-77